createdAt,value
2023-04-06T00:00:00.173Z,13.20
2023-04-06T00:00:22.349Z,13.19
2023-04-06T00:00:44.073Z,13.17
2023-04-06T00:01:06.040Z,13.19
2023-04-06T00:01:27.908Z,13.15
2023-04-06T00:01:51.085Z,13.16
2023-04-06T00:02:13.021Z,13.17
2023-04-06T00:02:36.221Z,13.20
2023-04-06T00:02:58.101Z,13.21
2023-04-06T00:03:21.116Z,13.23
2023-04-06T00:03:43.199Z,13.24
2023-04-06T00:04:05.832Z,13.22
2023-04-06T00:04:27.745Z,13.25
2023-04-06T00:04:49.499Z,13.26
2023-04-06T00:05:12.174Z,13.26
2023-04-06T00:05:33.883Z,13.09
2023-04-06T00:05:56.537Z,13.30
2023-04-06T00:06:18.321Z,13.30
2023-04-06T00:06:41.348Z,13.30
2023-04-06T00:07:03.188Z,13.21
2023-04-06T00:07:24.922Z,13.32
2023-04-06T00:07:46.657Z,13.29
2023-04-06T00:08:09.336Z,13.33
2023-04-06T00:08:31.378Z,13.36
2023-04-06T00:08:53.177Z,13.36
2023-04-06T00:09:14.984Z,13.37
2023-04-06T00:09:36.878Z,13.34
2023-04-06T00:10:15.720Z,13.32
2023-04-06T00:10:38.511Z,13.27
2023-04-06T00:11:00.293Z,13.34
2023-04-06T00:11:22.096Z,13.31
2023-04-06T00:11:43.813Z,13.29
2023-04-06T00:12:07.114Z,13.28
2023-04-06T00:12:28.878Z,13.27
2023-04-06T00:12:50.870Z,13.27
2023-04-06T00:13:12.690Z,13.26
2023-04-06T00:13:35.367Z,13.28
2023-04-06T00:13:57.038Z,13.26
2023-04-06T00:14:18.801Z,13.13
2023-04-06T00:14:41.405Z,13.25
2023-04-06T00:15:03.914Z,13.16
2023-04-06T00:15:26.830Z,13.28
2023-04-06T00:15:48.551Z,13.29
2023-04-06T00:16:10.446Z,13.31
2023-04-06T00:16:32.191Z,13.31
2023-04-06T00:16:54.081Z,13.29
2023-04-06T00:17:16.770Z,13.29
2023-04-06T00:17:39.936Z,13.30
2023-04-06T00:18:01.894Z,13.26
2023-04-06T00:18:24.112Z,13.28
2023-04-06T00:18:46.935Z,13.25
2023-04-06T00:19:08.789Z,12.95
2023-04-06T00:19:30.701Z,13.21
2023-04-06T00:19:52.479Z,13.21
2023-04-06T00:20:14.241Z,13.19
2023-04-06T00:20:36.952Z,13.16
2023-04-06T00:20:58.700Z,13.03
2023-04-06T00:21:20.406Z,13.06
2023-04-06T00:21:42.291Z,13.10
2023-04-06T00:22:04.176Z,13.13
2023-04-06T00:22:26.930Z,13.12
2023-04-06T00:22:48.679Z,13.12
2023-04-06T00:23:10.535Z,13.12
2023-04-06T00:23:32.287Z,13.17
2023-04-06T00:23:55.023Z,13.06
2023-04-06T00:24:16.740Z,13.04
2023-04-06T00:24:38.648Z,13.11
2023-04-06T00:25:00.637Z,13.12
2023-04-06T00:25:23.342Z,13.12
2023-04-06T00:25:45.203Z,13.12
2023-04-06T00:26:06.953Z,13.12
2023-04-06T00:26:28.730Z,13.10
2023-04-06T00:26:51.270Z,13.11
2023-04-06T00:27:14.196Z,12.97
2023-04-06T00:27:36.013Z,13.08
2023-04-06T00:27:58.044Z,13.07
2023-04-06T00:28:25.973Z,13.01
2023-04-06T00:28:48.644Z,13.03
2023-04-06T00:29:10.534Z,12.85
2023-04-06T00:29:32.489Z,12.99
2023-04-06T00:29:54.264Z,12.96
2023-04-06T00:30:17.002Z,12.96
2023-04-06T00:30:38.719Z,12.91
2023-04-06T00:31:00.654Z,12.92
2023-04-06T00:31:22.395Z,12.94
2023-04-06T00:31:44.412Z,12.91
2023-04-06T00:32:07.188Z,12.95
2023-04-06T00:32:29.325Z,12.95
2023-04-06T00:32:52.551Z,12.98
2023-04-06T00:33:14.703Z,12.82
2023-04-06T00:33:36.549Z,12.75
2023-04-06T00:33:59.030Z,12.86
2023-04-06T00:34:21.725Z,12.97
2023-04-06T00:34:43.698Z,12.94
2023-04-06T00:35:06.870Z,12.90
2023-04-06T00:35:28.692Z,12.98
2023-04-06T00:35:54.367Z,12.96
2023-04-06T00:36:17.126Z,12.98
2023-04-06T00:36:39.350Z,13.01
2023-04-06T00:37:01.145Z,12.85
2023-04-06T00:37:24.079Z,12.97
2023-04-06T00:37:47.667Z,12.97
2023-04-06T00:38:10.253Z,12.97
2023-04-06T00:38:32.657Z,12.98
2023-04-06T00:38:56.016Z,12.97
2023-04-06T00:39:19.745Z,12.98
2023-04-06T00:39:43.744Z,12.97
2023-04-06T00:40:07.847Z,12.88
2023-04-06T00:40:29.745Z,12.94
2023-04-06T00:40:51.515Z,12.97
2023-04-06T00:41:13.595Z,12.88
2023-04-06T00:41:37.842Z,12.91
2023-04-06T00:41:59.945Z,12.83
2023-04-06T00:42:26.635Z,12.82
2023-04-06T00:42:48.816Z,12.83
2023-04-06T00:43:12.010Z,12.82
2023-04-06T00:43:33.792Z,12.72
2023-04-06T00:43:55.675Z,12.68
2023-04-06T00:44:18.399Z,12.63
2023-04-06T00:44:40.212Z,12.54
2023-04-06T00:45:02.782Z,12.63
2023-04-06T00:45:24.654Z,12.64
2023-04-06T00:45:47.393Z,12.60
2023-04-06T00:46:09.335Z,12.60
2023-04-06T00:46:31.361Z,12.58
2023-04-06T00:46:53.117Z,12.59
2023-04-06T00:47:14.853Z,12.59
2023-04-06T00:47:37.840Z,12.56
2023-04-06T00:48:01.179Z,12.57
2023-04-06T00:48:22.960Z,12.57
2023-04-06T00:48:44.754Z,12.57
2023-04-06T00:49:06.810Z,12.55
2023-04-06T00:49:29.897Z,12.55
2023-04-06T00:49:51.917Z,12.56
2023-04-06T00:50:13.738Z,12.53
2023-04-06T00:50:37.033Z,12.55
2023-04-06T00:50:59.091Z,12.56
2023-04-06T00:51:21.875Z,12.55
2023-04-06T00:51:43.857Z,12.57
2023-04-06T00:52:06.131Z,12.57
2023-04-06T00:52:28.594Z,12.30
2023-04-06T00:52:51.478Z,12.64
2023-04-06T00:53:18.637Z,12.60
2023-04-06T00:53:40.881Z,12.63
2023-04-06T00:54:03.982Z,12.51
2023-04-06T00:54:28.979Z,12.66
2023-04-06T00:54:51.274Z,12.66
2023-04-06T00:55:14.698Z,12.68
2023-04-06T00:55:40.077Z,12.60
2023-04-06T00:56:03.615Z,12.68
2023-04-06T00:56:32.467Z,12.66
2023-04-06T00:56:54.319Z,12.64
2023-04-06T00:57:17.206Z,12.61
2023-04-06T00:57:40.239Z,12.61
2023-04-06T00:58:02.115Z,12.59
2023-04-06T00:58:27.446Z,12.60
2023-04-06T00:58:58.230Z,12.60
2023-04-06T00:59:20.557Z,12.59
2023-04-06T00:59:43.096Z,12.49
2023-04-06T01:00:10.905Z,12.63
2023-04-06T01:00:33.460Z,12.62
2023-04-06T01:00:57.072Z,12.61
2023-04-06T01:01:19.261Z,12.60
2023-04-06T01:01:42.545Z,12.60
2023-04-06T01:02:20.297Z,12.60
2023-04-06T01:02:46.048Z,12.60
2023-04-06T01:03:10.676Z,12.57
2023-04-06T01:03:36.789Z,12.58
2023-04-06T01:03:59.778Z,12.55
2023-04-06T01:04:23.633Z,12.64
2023-04-06T01:04:46.930Z,12.67
2023-04-06T01:05:19.207Z,12.65
2023-04-06T01:05:47.503Z,12.71
2023-04-06T01:06:17.149Z,12.66
2023-04-06T01:06:48.649Z,12.70
2023-04-06T01:07:11.410Z,12.72
2023-04-06T01:07:40.550Z,12.58
2023-04-06T01:08:09.882Z,12.72
2023-04-06T01:08:31.707Z,12.71
2023-04-06T01:09:08.115Z,12.70
2023-04-06T01:09:30.570Z,12.71
2023-04-06T01:09:54.369Z,12.69
2023-04-06T01:10:26.376Z,12.69
2023-04-06T01:10:54.224Z,12.59
2023-04-06T01:11:21.634Z,12.68
2023-04-06T01:11:45.562Z,12.68
2023-04-06T01:12:11.421Z,12.69
2023-04-06T01:12:34.166Z,12.70
2023-04-06T01:12:58.863Z,12.74
2023-04-06T01:13:39.266Z,12.74
2023-04-06T01:14:05.930Z,12.68
2023-04-06T01:14:42.542Z,12.73
2023-04-06T01:15:05.260Z,12.67
2023-04-06T01:15:30.838Z,12.78
2023-04-06T01:15:53.210Z,12.76
2023-04-06T01:16:31.768Z,12.75
2023-04-06T01:17:05.726Z,12.77
2023-04-06T01:17:29.650Z,12.77
2023-04-06T01:17:57.293Z,12.73
2023-04-06T01:18:27.273Z,12.74
2023-04-06T01:18:57.104Z,12.75
2023-04-06T01:19:23.312Z,12.66
2023-04-06T01:19:50.217Z,12.72
2023-04-06T01:20:18.671Z,12.72
2023-04-06T01:20:41.463Z,12.66
2023-04-06T01:21:03.731Z,12.71
2023-04-06T01:21:26.346Z,12.58
2023-04-06T01:22:17.473Z,12.73
2023-04-06T01:22:46.164Z,12.62
2023-04-06T01:23:08.354Z,12.73
2023-04-06T01:23:32.439Z,12.76
2023-04-06T01:23:54.378Z,12.75
2023-04-06T01:24:23.833Z,12.75
2023-04-06T01:25:18.146Z,12.71
2023-04-06T01:25:51.212Z,12.67
2023-04-06T01:26:14.126Z,12.69
2023-04-06T01:26:37.063Z,12.69
2023-04-06T01:27:02.583Z,12.67
2023-04-06T01:27:34.542Z,12.70
2023-04-06T01:28:08.328Z,12.67
2023-04-06T01:28:49.064Z,12.57
2023-04-06T01:29:21.400Z,12.64
2023-04-06T01:29:43.830Z,12.61
2023-04-06T01:30:08.774Z,12.61
2023-04-06T01:30:50.696Z,12.59
2023-04-06T01:31:35.537Z,12.51
2023-04-06T01:31:57.574Z,12.62
2023-04-06T01:32:20.323Z,12.60
2023-04-06T01:32:45.950Z,12.67
2023-04-06T01:33:10.647Z,12.65
2023-04-06T01:33:58.268Z,12.63
2023-04-06T01:34:21.569Z,12.64
2023-04-06T01:34:43.363Z,12.60
2023-04-06T01:35:05.725Z,12.61
2023-04-06T01:35:31.203Z,12.61
2023-04-06T01:36:09.864Z,12.60
2023-04-06T01:36:34.377Z,12.60
2023-04-06T01:37:16.855Z,12.57
2023-04-06T01:37:38.690Z,12.61
2023-04-06T01:38:04.621Z,12.57
2023-04-06T01:38:29.060Z,12.53
2023-04-06T01:38:51.161Z,12.58
2023-04-06T01:39:15.967Z,12.59
2023-04-06T01:39:38.652Z,12.59
2023-04-06T01:40:02.289Z,12.61
2023-04-06T01:40:36.241Z,12.62
2023-04-06T01:40:58.964Z,12.60
2023-04-06T01:41:24.211Z,12.60
2023-04-06T01:41:48.240Z,12.61
2023-04-06T01:42:11.453Z,12.63
2023-04-06T01:42:34.836Z,12.66
2023-04-06T01:42:57.608Z,12.65
2023-04-06T01:43:28.579Z,12.63
2023-04-06T01:44:00.133Z,12.63
2023-04-06T01:44:26.020Z,12.63
2023-04-06T01:44:59.153Z,12.52
2023-04-06T01:45:21.378Z,12.54
2023-04-06T01:45:43.572Z,12.54
2023-04-06T01:46:18.437Z,12.53
2023-04-06T01:46:40.877Z,12.50
2023-04-06T01:47:03.910Z,12.50
2023-04-06T01:47:25.729Z,12.53
2023-04-06T01:47:48.582Z,12.53
2023-04-06T01:48:10.566Z,12.49
2023-04-06T01:48:32.654Z,12.56
2023-04-06T01:48:56.578Z,12.58
2023-04-06T01:49:31.483Z,12.46
2023-04-06T01:49:53.327Z,12.29
2023-04-06T01:50:15.433Z,12.34
2023-04-06T01:50:40.694Z,12.40
2023-04-06T01:51:04.252Z,12.41
2023-04-06T01:51:31.106Z,12.39
2023-04-06T01:51:56.042Z,12.41
2023-04-06T01:52:19.566Z,12.39
2023-04-06T01:52:47.533Z,12.37
2023-04-06T01:53:09.376Z,12.30
2023-04-06T01:53:33.425Z,12.41
2023-04-06T01:53:59.884Z,12.43
2023-04-06T01:54:57.326Z,12.42
2023-04-06T01:55:38.241Z,12.43
2023-04-06T01:56:21.230Z,12.42
2023-04-06T01:56:56.267Z,12.39
2023-04-06T01:57:26.289Z,12.38
2023-04-06T01:57:54.154Z,12.32
2023-04-06T01:58:27.139Z,12.28
2023-04-06T01:58:49.242Z,12.25
2023-04-06T01:59:13.302Z,12.23
2023-04-06T01:59:37.936Z,12.21
2023-04-06T02:00:07.742Z,12.21
2023-04-06T02:00:46.360Z,12.24
2023-04-06T02:01:08.451Z,12.27
2023-04-06T02:01:43.342Z,12.28
2023-04-06T02:02:05.511Z,12.19
2023-04-06T02:02:30.649Z,12.28
2023-04-06T02:02:56.779Z,12.28
2023-04-06T02:03:21.725Z,12.28
2023-04-06T02:03:47.551Z,12.27
2023-04-06T02:04:10.423Z,12.23
2023-04-06T02:04:32.132Z,12.30
2023-04-06T02:05:03.639Z,12.33
2023-04-06T02:05:26.203Z,12.33
2023-04-06T02:05:49.540Z,12.29
2023-04-06T02:06:18.904Z,12.18
2023-04-06T02:06:40.738Z,12.31
2023-04-06T02:07:03.927Z,12.33
2023-04-06T02:07:27.111Z,12.32
2023-04-06T02:07:50.056Z,12.32
2023-04-06T02:08:16.703Z,12.35
2023-04-06T02:08:38.462Z,12.27
2023-04-06T02:09:00.199Z,12.29
2023-04-06T02:09:22.034Z,12.23
2023-04-06T02:09:44.758Z,12.27
2023-04-06T02:10:15.821Z,12.29
2023-04-06T02:10:38.951Z,12.30
2023-04-06T02:11:10.238Z,12.29
2023-04-06T02:11:40.292Z,12.30
2023-04-06T02:12:03.091Z,12.29
2023-04-06T02:12:27.345Z,12.28
2023-04-06T02:12:50.197Z,12.21
2023-04-06T02:13:20.391Z,12.30
2023-04-06T02:13:46.312Z,12.32
2023-04-06T02:14:08.011Z,12.29
2023-04-06T02:14:35.024Z,12.15
2023-04-06T02:14:56.913Z,12.19
2023-04-06T02:15:19.633Z,12.23
2023-04-06T02:15:41.452Z,12.28
2023-04-06T02:16:03.685Z,12.30
2023-04-06T02:16:25.570Z,12.29
2023-04-06T02:16:47.389Z,12.27
2023-04-06T02:17:10.591Z,12.03
2023-04-06T02:17:32.774Z,12.29
2023-04-06T02:17:54.925Z,12.28
2023-04-06T02:18:18.594Z,12.29
2023-04-06T02:18:40.553Z,12.20
2023-04-06T02:19:03.622Z,12.26
2023-04-06T02:19:25.364Z,12.26
2023-04-06T02:19:47.077Z,12.25
2023-04-06T02:20:09.554Z,12.08
2023-04-06T02:20:31.223Z,12.24
2023-04-06T02:20:53.935Z,12.23
2023-04-06T02:21:18.406Z,12.22
2023-04-06T02:21:40.372Z,12.23
2023-04-06T02:22:02.094Z,12.24
2023-04-06T02:22:24.887Z,12.17
2023-04-06T02:22:47.969Z,12.23
2023-04-06T02:23:09.690Z,12.15
2023-04-06T02:23:31.483Z,11.98
2023-04-06T02:23:54.884Z,12.19
2023-04-06T02:24:17.104Z,12.16
2023-04-06T02:24:38.833Z,12.11
2023-04-06T02:25:00.535Z,12.01
2023-04-06T02:25:22.367Z,12.07
2023-04-06T02:25:45.170Z,12.07
2023-04-06T02:26:06.885Z,12.07
2023-04-06T02:26:28.921Z,12.10
2023-04-06T02:26:50.863Z,12.06
2023-04-06T02:27:12.547Z,12.06
2023-04-06T02:27:35.519Z,12.09
2023-04-06T02:27:57.232Z,12.08
2023-04-06T02:28:18.969Z,12.05
2023-04-06T02:28:40.885Z,12.01
2023-04-06T02:29:03.163Z,12.01
2023-04-06T02:29:25.886Z,12.01
2023-04-06T02:29:47.678Z,11.88
2023-04-06T02:30:13.599Z,11.93
2023-04-06T02:30:35.486Z,11.92
2023-04-06T02:30:58.244Z,11.89
2023-04-06T02:31:22.637Z,11.91
2023-04-06T02:31:45.368Z,11.88
2023-04-06T02:32:07.586Z,11.89
2023-04-06T02:32:30.500Z,11.89
2023-04-06T02:32:53.471Z,11.77
2023-04-06T02:33:15.700Z,11.94
2023-04-06T02:33:41.375Z,11.99
2023-04-06T02:34:03.758Z,12.00
2023-04-06T02:34:27.752Z,12.02
2023-04-06T02:34:49.652Z,12.04
2023-04-06T02:35:13.708Z,12.06
2023-04-06T02:35:36.216Z,12.10
2023-04-06T02:35:58.088Z,12.01
2023-04-06T02:36:21.997Z,12.05
2023-04-06T02:36:43.847Z,12.03
2023-04-06T02:37:05.728Z,12.06
2023-04-06T02:37:27.601Z,11.96
2023-04-06T02:37:51.265Z,12.05
2023-04-06T02:38:14.020Z,12.02
2023-04-06T02:38:37.204Z,12.03
2023-04-06T02:38:58.987Z,12.03
2023-04-06T02:39:20.895Z,11.94
2023-04-06T02:39:43.737Z,11.95
2023-04-06T02:40:07.190Z,12.00
2023-04-06T02:40:28.919Z,12.00
2023-04-06T02:40:52.141Z,12.01
2023-04-06T02:41:16.930Z,12.01
2023-04-06T02:41:39.912Z,12.00
2023-04-06T02:42:01.996Z,12.03
2023-04-06T02:42:24.983Z,12.04
2023-04-06T02:42:48.266Z,12.03
2023-04-06T02:43:12.183Z,11.98
2023-04-06T02:43:35.036Z,12.00
2023-04-06T02:44:01.603Z,12.08
2023-04-06T02:44:32.484Z,12.10
2023-04-06T02:44:54.402Z,12.07
2023-04-06T02:45:19.987Z,12.07
2023-04-06T02:45:43.100Z,11.99
2023-04-06T02:46:05.945Z,12.07
2023-04-06T02:46:31.848Z,12.08
2023-04-06T02:46:53.874Z,12.09
2023-04-06T02:47:18.107Z,12.06
2023-04-06T02:47:43.488Z,12.05
2023-04-06T02:48:07.090Z,12.06
2023-04-06T02:48:29.151Z,12.04
2023-04-06T02:48:51.945Z,11.97
2023-04-06T02:49:13.738Z,11.98
2023-04-06T02:49:35.981Z,11.98
2023-04-06T02:49:57.772Z,11.98
2023-04-06T02:50:20.943Z,11.95
2023-04-06T02:50:50.829Z,11.86
2023-04-06T02:51:12.515Z,11.91
2023-04-06T02:51:36.899Z,11.91
2023-04-06T02:52:13.439Z,11.84
2023-04-06T02:52:35.258Z,11.83
2023-04-06T02:52:58.709Z,11.85
2023-04-06T02:53:20.577Z,11.86
2023-04-06T02:53:42.292Z,11.87
2023-04-06T02:54:04.123Z,11.83
2023-04-06T02:54:25.939Z,11.88
2023-04-06T02:54:48.769Z,11.88
2023-04-06T02:55:17.378Z,11.79
2023-04-06T02:55:39.150Z,11.82
2023-04-06T02:56:01.108Z,11.83
2023-04-06T02:56:33.032Z,11.79
2023-04-06T02:56:54.839Z,11.84
2023-04-06T02:57:18.841Z,11.78
2023-04-06T02:57:41.475Z,11.84
2023-04-06T02:58:04.526Z,11.84
2023-04-06T02:58:33.830Z,11.84
2023-04-06T02:58:55.934Z,11.87
2023-04-06T02:59:21.564Z,11.88
2023-04-06T02:59:55.515Z,11.92
2023-04-06T03:00:23.863Z,11.92
2023-04-06T03:00:45.606Z,11.94
2023-04-06T03:01:07.473Z,11.94
2023-04-06T03:01:30.601Z,11.94
2023-04-06T03:01:56.748Z,11.87
2023-04-06T03:02:18.454Z,11.92
2023-04-06T03:02:40.955Z,11.83
2023-04-06T03:03:09.374Z,11.84
2023-04-06T03:03:32.515Z,11.86
2023-04-06T03:03:55.058Z,11.90
2023-04-06T03:04:22.723Z,11.87
2023-04-06T03:04:46.740Z,11.82
2023-04-06T03:05:23.716Z,11.86
2023-04-06T03:05:45.698Z,11.88
2023-04-06T03:06:08.968Z,11.92
2023-04-06T03:06:31.369Z,11.84
2023-04-06T03:07:01.352Z,11.89
2023-04-06T03:07:33.358Z,11.89
2023-04-06T03:07:55.312Z,11.91
2023-04-06T03:08:28.712Z,11.91
2023-04-06T03:08:50.690Z,11.87
2023-04-06T03:09:15.321Z,11.82
2023-04-06T03:09:39.293Z,11.85
2023-04-06T03:10:01.715Z,11.84
2023-04-06T03:10:26.043Z,11.83
2023-04-06T03:10:47.883Z,11.90
2023-04-06T03:11:12.034Z,11.87
2023-04-06T03:11:36.864Z,11.93
2023-04-06T03:11:58.622Z,11.83
2023-04-06T03:12:20.606Z,11.91
2023-04-06T03:13:07.222Z,11.91
2023-04-06T03:13:50.562Z,11.97
2023-04-06T03:14:12.272Z,11.88
2023-04-06T03:14:34.008Z,11.99
2023-04-06T03:14:56.976Z,11.99
2023-04-06T03:15:18.961Z,11.99
2023-04-06T03:15:46.066Z,11.69
2023-04-06T03:16:11.632Z,12.00
2023-04-06T03:16:34.458Z,12.04
2023-04-06T03:16:57.179Z,12.04
2023-04-06T03:17:21.362Z,12.04
2023-04-06T03:17:43.365Z,12.02
2023-04-06T03:18:13.356Z,12.00
2023-04-06T03:18:38.698Z,12.00
2023-04-06T03:19:00.934Z,12.02
2023-04-06T03:19:24.106Z,11.96
2023-04-06T03:19:47.483Z,12.01
2023-04-06T03:20:10.150Z,12.04
2023-04-06T03:20:31.931Z,11.94
2023-04-06T03:20:54.867Z,12.05
2023-04-06T03:21:20.256Z,12.06
2023-04-06T03:21:44.565Z,12.06
2023-04-06T03:22:07.504Z,12.05
2023-04-06T03:22:30.110Z,11.98
2023-04-06T03:22:52.881Z,12.07
2023-04-06T03:23:21.607Z,12.07
2023-04-06T03:23:51.456Z,12.08
2023-04-06T03:24:14.716Z,12.08
2023-04-06T03:24:37.564Z,12.06
2023-04-06T03:25:03.495Z,12.02
2023-04-06T03:25:26.675Z,12.09
2023-04-06T03:25:53.271Z,11.99
2023-04-06T03:26:16.644Z,12.11
2023-04-06T03:26:38.466Z,12.12
2023-04-06T03:27:02.505Z,12.05
2023-04-06T03:27:25.677Z,12.07
2023-04-06T03:27:47.540Z,12.06
2023-04-06T03:28:12.569Z,12.07
2023-04-06T03:28:45.535Z,12.10
2023-04-06T03:29:07.532Z,11.91
2023-04-06T03:29:30.875Z,12.07
2023-04-06T03:29:52.743Z,12.07
2023-04-06T03:30:22.486Z,12.08
2023-04-06T03:30:44.279Z,12.09
2023-04-06T03:31:06.702Z,12.03
2023-04-06T03:31:52.050Z,12.00
2023-04-06T03:32:23.290Z,11.97
2023-04-06T03:32:45.405Z,11.98
2023-04-06T03:33:07.149Z,11.90
2023-04-06T03:33:37.116Z,11.94
2023-04-06T03:34:00.001Z,11.95
2023-04-06T03:34:26.450Z,11.96
2023-04-06T03:34:48.167Z,11.96
2023-04-06T03:35:11.600Z,11.92
2023-04-06T03:35:33.730Z,11.93
2023-04-06T03:35:55.926Z,11.92
2023-04-06T03:36:21.431Z,11.92
2023-04-06T03:36:43.244Z,11.90
2023-04-06T03:37:10.494Z,11.74
2023-04-06T03:37:37.565Z,11.60
2023-04-06T03:38:01.455Z,11.73
2023-04-06T03:38:23.825Z,11.84
2023-04-06T03:38:45.688Z,11.61
2023-04-06T03:39:10.735Z,11.82
2023-04-06T03:39:36.118Z,11.67
2023-04-06T03:39:59.380Z,11.76
2023-04-06T03:40:21.177Z,11.77
2023-04-06T03:40:43.586Z,11.78
2023-04-06T03:41:05.562Z,11.81
2023-04-06T03:41:28.477Z,11.65
2023-04-06T03:42:01.836Z,11.81
2023-04-06T03:42:33.466Z,11.84
2023-04-06T03:43:06.198Z,11.87
2023-04-06T03:43:30.874Z,11.80
2023-04-06T03:43:52.668Z,11.79
2023-04-06T03:44:14.365Z,11.85
2023-04-06T03:44:37.110Z,11.76
2023-04-06T03:44:59.480Z,11.85
2023-04-06T03:45:21.330Z,11.85
2023-04-06T03:45:45.989Z,11.85
2023-04-06T03:46:10.276Z,11.84
2023-04-06T03:46:32.317Z,11.85
2023-04-06T03:46:54.875Z,11.88
2023-04-06T03:47:17.238Z,11.86
2023-04-06T03:47:40.155Z,11.87
2023-04-06T03:48:03.792Z,11.89
2023-04-06T03:48:28.673Z,11.77
2023-04-06T03:48:50.421Z,11.88
2023-04-06T03:49:14.781Z,11.86
2023-04-06T03:49:40.569Z,11.86
2023-04-06T03:50:05.039Z,11.85
2023-04-06T03:50:28.937Z,11.87
2023-04-06T03:50:51.820Z,11.86
2023-04-06T03:51:13.532Z,11.66
2023-04-06T03:51:35.332Z,11.80
2023-04-06T03:51:57.555Z,11.86
2023-04-06T03:52:20.241Z,11.84
2023-04-06T03:52:42.002Z,11.86
2023-04-06T03:53:04.097Z,11.86
2023-04-06T03:53:26.057Z,11.85
2023-04-06T03:53:47.761Z,11.83
2023-04-06T03:54:11.828Z,11.83
2023-04-06T03:54:33.594Z,11.79
2023-04-06T03:54:55.455Z,11.83
2023-04-06T03:55:17.337Z,11.78
2023-04-06T03:55:40.696Z,11.82
2023-04-06T03:56:04.741Z,11.77
2023-04-06T03:56:27.444Z,11.85
2023-04-06T03:56:49.843Z,11.85
2023-04-06T03:57:12.575Z,11.83
2023-04-06T03:57:34.292Z,11.82
2023-04-06T03:57:55.969Z,11.83
2023-04-06T03:58:17.798Z,11.72
2023-04-06T03:58:41.889Z,11.80
2023-04-06T03:59:03.669Z,11.82
2023-04-06T03:59:25.457Z,11.81
2023-04-06T03:59:48.422Z,11.83
2023-04-06T04:00:12.555Z,11.86
2023-04-06T04:00:37.374Z,11.81
2023-04-06T04:00:59.079Z,11.80
2023-04-06T04:01:21.073Z,11.81
2023-04-06T04:01:43.294Z,11.83
2023-04-06T04:02:06.299Z,11.82
2023-04-06T04:02:28.233Z,11.83
2023-04-06T04:02:50.109Z,11.68
2023-04-06T04:03:12.002Z,11.82
2023-04-06T04:03:35.068Z,11.85
2023-04-06T04:03:56.953Z,11.82
2023-04-06T04:04:18.776Z,11.83
2023-04-06T04:04:40.610Z,11.84
2023-04-06T04:05:02.750Z,11.82
2023-04-06T04:05:26.425Z,11.76
2023-04-06T04:05:48.712Z,11.81
2023-04-06T04:06:10.426Z,11.82
2023-04-06T04:06:32.226Z,11.80
2023-04-06T04:06:54.104Z,11.80
2023-04-06T04:07:16.865Z,11.75
2023-04-06T04:07:38.611Z,11.81
2023-04-06T04:08:02.115Z,11.70
2023-04-06T04:08:26.123Z,11.77
2023-04-06T04:08:47.898Z,11.80
2023-04-06T04:09:12.170Z,11.78
2023-04-06T04:09:33.879Z,11.80
2023-04-06T04:09:55.789Z,11.75
2023-04-06T04:10:17.559Z,11.81
2023-04-06T04:10:39.388Z,11.80
2023-04-06T04:11:01.418Z,11.78
2023-04-06T04:11:24.902Z,11.77
2023-04-06T04:11:52.730Z,11.75
2023-04-06T04:12:17.604Z,11.73
2023-04-06T04:12:39.509Z,11.73
2023-04-06T04:13:02.378Z,11.69
2023-04-06T04:13:24.277Z,11.74
2023-04-06T04:13:47.279Z,11.75
2023-04-06T04:14:09.250Z,11.70
2023-04-06T04:14:31.082Z,11.68
2023-04-06T04:14:53.038Z,11.70
2023-04-06T04:15:16.113Z,11.76
2023-04-06T04:15:37.981Z,11.71
2023-04-06T04:15:59.754Z,11.75
2023-04-06T04:16:21.653Z,11.70
2023-04-06T04:16:44.405Z,11.68
2023-04-06T04:17:06.122Z,11.59
2023-04-06T04:17:27.885Z,11.73
2023-04-06T04:17:50.519Z,11.75
2023-04-06T04:18:12.328Z,11.77
2023-04-06T04:18:36.203Z,11.76
2023-04-06T04:18:59.109Z,11.77
2023-04-06T04:19:20.954Z,11.76
2023-04-06T04:19:42.911Z,11.77
2023-04-06T04:20:06.730Z,11.76
2023-04-06T04:20:29.439Z,11.79
2023-04-06T04:20:51.900Z,11.72
2023-04-06T04:21:15.474Z,11.68
2023-04-06T04:21:45.318Z,11.65
2023-04-06T04:22:09.132Z,11.51
2023-04-06T04:22:34.481Z,11.51
2023-04-06T04:22:56.297Z,11.58
2023-04-06T04:23:19.136Z,11.58
2023-04-06T04:23:41.294Z,11.53
2023-04-06T04:24:03.373Z,11.53
2023-04-06T04:24:27.181Z,11.52
2023-04-06T04:24:50.217Z,11.49
2023-04-06T04:25:12.105Z,11.47
2023-04-06T04:25:39.391Z,11.42
2023-04-06T04:26:01.418Z,11.34
2023-04-06T04:26:24.867Z,11.42
2023-04-06T04:26:46.595Z,11.29
2023-04-06T04:27:10.818Z,11.34
2023-04-06T04:27:33.707Z,11.35
2023-04-06T04:27:55.812Z,11.36
2023-04-06T04:28:19.762Z,11.35
2023-04-06T04:28:43.301Z,11.37
2023-04-06T04:29:05.317Z,11.38
2023-04-06T04:29:27.026Z,11.40
2023-04-06T04:29:49.558Z,11.40
2023-04-06T04:30:12.909Z,11.30
2023-04-06T04:30:35.729Z,11.33
2023-04-06T04:31:01.676Z,11.28
2023-04-06T04:31:26.733Z,11.26
2023-04-06T04:31:53.281Z,11.26
2023-04-06T04:32:16.487Z,11.27
2023-04-06T04:32:38.887Z,11.25
2023-04-06T04:33:02.615Z,11.23
2023-04-06T04:33:24.677Z,11.15
2023-04-06T04:33:49.941Z,11.19
2023-04-06T04:34:21.494Z,11.22
2023-04-06T04:34:43.209Z,11.18
2023-04-06T04:35:12.309Z,11.14
2023-04-06T04:35:39.242Z,11.10
2023-04-06T04:36:02.133Z,11.11
2023-04-06T04:36:30.798Z,10.93
2023-04-06T04:36:54.908Z,11.10
2023-04-06T04:37:26.427Z,11.06
2023-04-06T04:37:51.966Z,11.04
2023-04-06T04:38:13.709Z,10.88
2023-04-06T04:38:37.819Z,10.96
2023-04-06T04:39:02.034Z,10.82
2023-04-06T04:39:28.922Z,10.98
2023-04-06T04:39:57.654Z,10.99
2023-04-06T04:40:19.346Z,10.90
2023-04-06T04:41:00.785Z,10.93
2023-04-06T04:41:22.634Z,10.96
2023-04-06T04:41:45.318Z,10.96
2023-04-06T04:42:08.941Z,10.97
2023-04-06T04:42:34.884Z,10.96
2023-04-06T04:42:57.781Z,10.92
2023-04-06T04:43:26.722Z,10.88
2023-04-06T04:43:48.951Z,10.89
2023-04-06T04:44:16.771Z,10.86
2023-04-06T04:44:39.228Z,10.92
2023-04-06T04:45:01.264Z,10.94
2023-04-06T04:45:32.544Z,10.95
2023-04-06T04:46:00.487Z,10.97
2023-04-06T04:46:31.891Z,11.02
2023-04-06T04:46:53.838Z,10.99
2023-04-06T04:47:21.281Z,10.95
2023-04-06T04:47:43.859Z,10.97
2023-04-06T04:48:09.840Z,10.97
2023-04-06T04:48:45.138Z,11.06
2023-04-06T04:49:06.959Z,11.02
2023-04-06T04:49:32.136Z,11.02
2023-04-06T04:49:55.288Z,11.06
2023-04-06T04:50:21.400Z,10.85
2023-04-06T04:50:46.135Z,10.90
2023-04-06T04:51:09.932Z,10.86
2023-04-06T04:51:53.435Z,10.82
2023-04-06T04:52:21.782Z,10.72
2023-04-06T04:52:56.009Z,10.82
2023-04-06T04:53:23.153Z,10.78
2023-04-06T04:53:48.205Z,10.76
2023-04-06T04:54:15.804Z,10.75
2023-04-06T04:54:41.964Z,10.72
2023-04-06T04:55:08.511Z,10.71
2023-04-06T04:55:30.408Z,10.74
2023-04-06T04:55:54.284Z,10.65
2023-04-06T04:56:16.179Z,10.69
2023-04-06T04:56:39.979Z,10.71
2023-04-06T04:57:27.781Z,10.75
2023-04-06T04:57:49.848Z,10.72
2023-04-06T04:58:17.564Z,10.66
2023-04-06T04:58:51.000Z,10.71
2023-04-06T04:59:13.512Z,10.73
2023-04-06T04:59:38.589Z,10.71
2023-04-06T05:00:10.640Z,10.71
2023-04-06T05:00:35.849Z,10.78
2023-04-06T05:00:57.723Z,10.78
2023-04-06T05:01:19.879Z,10.76
2023-04-06T05:01:54.250Z,10.72
2023-04-06T05:02:19.112Z,10.69
2023-04-06T05:02:55.809Z,10.67
2023-04-06T05:03:27.640Z,10.63
2023-04-06T05:03:54.999Z,10.60
2023-04-06T05:04:17.302Z,10.50
2023-04-06T05:04:39.168Z,10.65
2023-04-06T05:05:02.970Z,10.60
2023-04-06T05:05:25.969Z,10.63
2023-04-06T05:05:47.917Z,10.37
2023-04-06T05:06:13.395Z,10.56
2023-04-06T05:06:36.365Z,10.58
2023-04-06T05:07:05.748Z,10.48
2023-04-06T05:07:29.136Z,10.44
2023-04-06T05:07:52.922Z,10.52
2023-04-06T05:08:28.762Z,10.46
2023-04-06T05:08:50.544Z,10.45
2023-04-06T05:09:13.383Z,10.31
2023-04-06T05:09:37.357Z,10.50
2023-04-06T05:10:01.125Z,10.42
2023-04-06T05:10:28.042Z,10.43
2023-04-06T05:10:54.401Z,10.35
2023-04-06T05:11:16.846Z,10.22
2023-04-06T05:11:42.573Z,10.21
2023-04-06T05:12:05.531Z,10.31
2023-04-06T05:12:32.474Z,10.42
2023-04-06T05:13:01.624Z,10.51
2023-04-06T05:13:24.696Z,10.56
2023-04-06T05:13:48.264Z,10.50
2023-04-06T05:14:14.650Z,10.64
2023-04-06T05:14:36.618Z,10.68
2023-04-06T05:15:02.532Z,10.71
2023-04-06T05:15:24.451Z,10.72
2023-04-06T05:15:51.209Z,10.76
2023-04-06T05:16:26.569Z,10.74